Time;durP1;ratioP1;P1;durP2;ratioP2;P2;SDS_P1;SDS_P2;PMS_P1;PMS_P2;Temp;Humidity;BMP_temperature;BMP_pressure;BME280_temperature;BME280_humidity;BME280_pressure;Samples;Min_cycle;Max_cycle;Signal;HPM_P1;HPM_P2
2021/10/21 00:01:00;;;;;;;7.83;5.60;;;;;;;14.62;100.00;99268.72;21131226;28;20229;-61
2021/10/21 00:11:05;;;;;;;5.30;4.80;;;;;;;14.52;100.00;99259.88;21068938;28;20224;-61
2021/10/21 00:21:09;;;;;;;5.53;5.03;;;;;;;14.46;100.00;99263.16;21046859;28;20283;-62
2021/10/21 00:31:14;;;;;;;7.60;5.37;;;;;;;14.36;100.00;99240.88;21069528;28;20250;-62
2021/10/21 00:41:18;;;;;;;5.70;4.50;;;;;;;14.25;100.00;99239.19;21095791;28;20492;-63
2021/10/21 00:51:26;;;;;;;5.27;4.77;;;;;;;14.01;100.00;99222.78;21141540;27;20221;-62
2021/10/21 01:01:32;;;;;;;8.00;5.47;;;;;;;13.94;100.00;99211.81;21137382;28;20374;-62
2021/10/21 01:11:40;;;;;;;5.30;4.53;;;;;;;13.71;100.00;99197.06;21049738;28;20225;-62
2021/10/21 01:21:47;;;;;;;5.80;5.30;;;;;;;13.59;100.00;99183.00;21063071;28;20682;-62
2021/10/21 01:31:52;;;;;;;7.30;4.80;;;;;;;13.65;100.00;99182.41;21061940;28;20239;-61
2021/10/21 01:41:57;;;;;;;4.90;4.40;;;;;;;13.65;100.00;99170.81;21145151;28;20305;-62
2021/10/21 01:52:00;;;;;;;4.93;4.43;;;;;;;13.50;100.00;99156.22;21044978;28;20224;-61
2021/10/21 02:12:03;;;;;;;6.53;4.90;;;;;;;13.27;100.00;99119.06;21031226;27;20650;-62
2021/10/21 02:22:07;;;;;;;5.20;4.70;;;;;;;13.14;100.00;99102.44;21042122;28;20228;-61
2021/10/21 02:32:12;;;;;;;6.07;5.47;;;;;;;12.94;100.00;99092.72;21054112;27;20219;-62
2021/10/21 02:42:15;;;;;;;5.33;4.90;;;;;;;12.70;100.00;99082.47;20975669;28;20246;-62
2021/10/21 02:52:21;;;;;;;5.73;5.23;;;;;;;12.78;100.00;99057.69;21042542;28;21106;-62
2021/10/21 03:02:24;;;;;;;5.53;5.03;;;;;;;12.95;100.00;99063.13;21024426;28;21112;-61
2021/10/21 03:12:29;;;;;;;6.33;5.83;;;;;;;13.12;100.00;99039.25;21042038;28;20226;-61
2021/10/21 03:22:53;;;;;;;7.10;6.40;;;;;;;13.21;100.00;99033.91;20991057;28;20705;-61
2021/10/21 03:32:59;;;;;;;9.20;6.43;;;;;;;13.16;100.00;99004.03;20998225;28;20321;-61
2021/10/21 03:43:02;;;;;;;6.63;5.93;;;;;;;12.97;100.00;98967.44;20987328;28;20228;-62
2021/10/21 03:53:09;;;;;;;6.73;5.83;;;;;;;12.79;100.00;98968.34;20963466;28;20234;-62
2021/10/21 04:03:14;;;;;;;6.03;5.53;;;;;;;12.88;100.00;98972.81;20982920;28;20227;-61
2021/10/21 04:13:21;;;;;;;5.83;5.30;;;;;;;13.12;100.00;98956.25;20926360;28;20224;-62
2021/10/21 04:23:24;;;;;;;6.17;5.63;;;;;;;13.18;100.00;98927.03;20975988;28;20422;-61
2021/10/21 04:33:29;;;;;;;5.33;4.83;;;;;;;13.08;100.00;98915.50;20970015;28;21004;-61
2021/10/21 04:43:33;;;;;;;6.13;5.53;;;;;;;12.83;100.00;98908.16;20966023;28;20228;-60
2021/10/21 04:53:38;;;;;;;5.10;4.60;;;;;;;12.59;100.00;98917.53;20977004;28;20232;-62
2021/10/21 05:03:41;;;;;;;7.17;5.73;;;;;;;12.40;100.00;98888.19;20956890;28;20221;-61
2021/10/21 05:13:46;;;;;;;6.37;5.47;;;;;;;12.46;100.00;98855.47;20975071;28;20228;-61
2021/10/21 05:23:50;;;;;;;6.10;5.40;;;;;;;12.80;100.00;98862.97;20951219;28;20355;-68
2021/10/21 05:33:55;;;;;;;5.83;5.27;;;;;;;13.11;100.00;98836.72;20946922;28;20225;-69
2021/10/21 05:43:58;;;;;;;6.73;5.07;;;;;;;13.40;100.00;98836.56;20955096;28;20788;-66
2021/10/21 05:54:03;;;;;;;5.73;4.97;;;;;;;13.71;100.00;98816.41;20971336;28;20218;-66
2021/10/21 06:04:07;;;;;;;6.30;5.70;;;;;;;14.07;100.00;98818.00;20963100;28;20218;-67
2021/10/21 06:14:12;;;;;;;6.20;5.17;;;;;;;14.73;100.00;98790.53;20964462;28;20219;-65
2021/10/21 06:24:17;;;;;;;6.50;5.90;;;;;;;15.13;100.00;98783.59;20971022;28;20322;-68
2021/10/21 06:34:23;;;;;;;6.07;5.40;;;;;;;15.19;100.00;98793.69;20956400;28;20238;-67
2021/10/21 06:44:27;;;;;;;14.10;5.83;;;;;;;15.26;100.00;98800.09;20972437;28;20233;-68
2021/10/21 07:04:29;;;;;;;7.07;5.90;;;;;;;15.11;100.00;98828.59;21028000;27;20852;-66
2021/10/21 07:14:51;;;;;;;7.00;6.40;;;;;;;14.92;100.00;98810.06;21025731;27;20763;-69
2021/10/21 07:24:56;;;;;;;7.03;5.80;;;;;;;14.88;100.00;98792.59;21046183;27;20238;-67
2021/10/21 07:35:00;;;;;;;6.80;6.20;;;;;;;14.89;100.00;98788.91;21030353;27;20234;-66
2021/10/21 07:45:08;;;;;;;6.77;6.17;;;;;;;15.06;100.00;98778.06;20954002;28;20239;-66
2021/10/21 07:55:14;;;;;;;7.57;6.97;;;;;;;15.18;100.00;98765.16;20951299;28;20245;-67
2021/10/21 08:05:19;;;;;;;7.80;7.10;;;;;;;15.07;100.00;98784.28;20945648;28;20313;-68
2021/10/21 08:15:23;;;;;;;9.27;8.37;;;;;;;14.74;100.00;98765.38;20905927;28;20235;-67
2021/10/21 08:25:29;;;;;;;8.53;7.73;;;;;;;14.52;100.00;98755.22;20891726;28;20281;-67
2021/10/21 08:35:33;;;;;;;9.13;8.23;;;;;;;14.48;100.00;98763.78;20902710;28;20243;-68
2021/10/21 08:45:38;;;;;;;8.57;7.77;;;;;;;14.25;100.00;98760.78;20879312;28;20231;-67
2021/10/21 08:55:42;;;;;;;9.00;8.10;;;;;;;13.93;100.00;98711.31;20901018;28;20227;-67
2021/10/21 09:05:52;;;;;;;9.73;8.73;;;;;;;13.69;100.00;98712.00;20882570;28;20245;-68
2021/10/21 09:15:59;;;;;;;10.00;9.10;;;;;;;13.72;100.00;98659.06;20894234;28;20232;-67
2021/10/21 09:26:11;;;;;;;9.37;8.47;;;;;;;13.75;100.00;98664.97;20885295;28;20230;-68
2021/10/21 09:36:20;;;;;;;9.57;8.67;;;;;;;13.75;100.00;98627.44;20887036;28;20265;-67
2021/10/21 09:46:40;;;;;;;10.23;9.23;;;;;;;14.24;100.00;98619.59;20891943;28;20484;-69
2021/10/21 09:57:00;;;;;;;9.63;8.73;;;;;;;14.90;100.00;98610.66;20878093;28;20237;-68
2021/10/21 10:07:05;;;;;;;8.87;8.10;;;;;;;15.58;100.00;98602.22;20894943;28;20762;-66
2021/10/21 10:17:09;;;;;;;9.97;9.07;;;;;;;15.85;100.00;98593.72;20871800;28;20601;-68
2021/10/21 10:27:27;;;;;;;10.80;9.60;;;;;;;15.94;100.00;98555.00;20892259;28;20277;-68
2021/10/21 10:37:44;;;;;;;8.80;7.90;;;;;;;16.54;100.00;98533.59;20870537;28;20700;-66
2021/10/21 10:47:52;;;;;;;7.73;7.03;;;;;;;17.01;100.00;98529.03;20893049;28;20231;-67
2021/10/21 10:57:58;;;;;;;8.27;7.47;;;;;;;17.02;100.00;98483.03;20874198;28;20762;-68
2021/10/21 11:08:03;;;;;;;8.80;7.90;;;;;;;16.80;100.00;98440.81;20888665;28;20253;-67
2021/10/21 11:18:06;;;;;;;9.47;8.50;;;;;;;16.66;100.00;98447.03;20880222;28;20259;-66
2021/10/21 11:28:13;;;;;;;8.40;7.60;;;;;;;16.42;100.00;98424.66;20881344;28;20653;-67
2021/10/21 11:38:18;;;;;;;8.23;7.43;;;;;;;16.27;100.00;98396.88;20887275;28;20254;-68
2021/10/21 11:48:27;;;;;;;9.37;8.23;;;;;;;16.55;100.00;98381.78;20883828;28;20253;-67
2021/10/21 11:58:34;;;;;;;7.80;7.10;;;;;;;16.84;100.00;98381.00;20919632;28;20613;-67
2021/10/21 12:08:39;;;;;;;9.70;8.03;;;;;;;17.12;100.00;98393.84;20888976;28;20631;-68
2021/10/21 12:18:43;;;;;;;7.43;6.63;;;;;;;17.49;100.00;98388.28;20904065;28;20231;-67
2021/10/21 12:28:49;;;;;;;8.03;6.00;;;;;;;17.58;100.00;98327.81;20882003;28;20232;-68
2021/10/21 12:39:02;;;;;;;5.93;5.37;;;;;;;17.46;97.19;98355.47;20924271;28;20229;-68
2021/10/21 12:49:12;;;;;;;7.17;4.43;;;;;;;17.36;94.20;98323.44;20892947;28;20235;-68
2021/10/21 12:59:22;;;;;;;4.37;3.80;;;;;;;17.40;96.01;98348.97;20929733;28;20572;-67
2021/10/21 13:09:30;;;;;;;7.53;4.37;;;;;;;17.44;88.37;98334.09;20973711;28;20215;-68
2021/10/21 13:19:35;;;;;;;6.37;4.50;;;;;;;17.64;89.24;98300.09;20969202;28;20708;-67
2021/10/21 13:29:40;;;;;;;4.40;4.10;;;;;;;17.72;91.01;98330.69;20980052;28;20261;-68
2021/10/21 13:39:44;;;;;;;7.00;4.20;;;;;;;17.99;91.43;98359.59;20981557;28;20833;-68
2021/10/21 13:49:49;;;;;;;5.00;4.50;;;;;;;18.23;86.15;98369.94;21001658;28;20231;-67
2021/10/21 13:59:53;;;;;;;8.87;4.77;;;;;;;17.73;85.48;98373.66;20956362;28;20767;-67
2021/10/21 14:09:59;;;;;;;17.30;5.93;;;;;;;17.27;84.86;98389.25;20977400;28;20223;-67
2021/10/21 14:20:03;;;;;;;4.57;4.10;;;;;;;17.18;87.33;98387.69;20903062;28;20237;-66
2021/10/21 14:30:10;;;;;;;10.10;3.70;;;;;;;16.85;78.67;98346.84;20905639;28;20286;-66
2021/10/21 14:40:16;;;;;;;9.30;3.33;;;;;;;16.79;76.23;98413.03;20905009;28;20262;-66
2021/10/21 14:50:21;;;;;;;14.10;3.23;;;;;;;16.91;73.24;98432.28;20904556;28;20240;-67
2021/10/21 15:00:24;;;;;;;14.07;2.70;;;;;;;16.98;67.26;98459.34;20903802;28;20249;-67
2021/10/21 15:31:29;;;;;;;67.13;5.60;;;;;;;16.40;65.78;98557.78;21002762;28;20264;-66
2021/10/21 15:41:33;;;;;;;54.77;4.60;;;;;;;15.82;68.76;98677.41;21001611;28;20233;-67
2021/10/21 16:09:20;;;;;;;39.67;3.33;;;;;;;15.52;68.48;98667.38;21000779;28;20298;-66
2021/10/21 16:12:45;;;;;;;56.67;4.10;;;;;;;15.01;72.50;98666.72;20998574;28;20567;-66
2021/10/21 16:22:51;;;;;;;30.83;3.10;;;;;;;14.80;74.03;98798.78;20997613;28;20318;-69
2021/10/21 16:32:56;;;;;;;19.77;2.50;;;;;;;14.49;77.45;98817.25;20993415;28;20597;-68
2021/10/21 16:43:00;;;;;;;28.23;2.97;;;;;;;14.20;81.78;98812.22;20970643;28;20309;-71
2021/10/21 16:53:05;;;;;;;17.23;1.60;;;;;;;13.96;85.18;98879.94;20969669;28;20249;-72
2021/10/21 17:03:09;;;;;;;22.57;2.60;;;;;;;13.80;88.71;98920.00;20967677;28;20233;-70
2021/10/21 17:13:17;;;;;;;16.10;1.90;;;;;;;13.61;89.20;98917.50;20968158;28;20237;-67
2021/10/21 17:23:23;;;;;;;10.90;2.37;;;;;;;13.12;93.97;98921.44;20966052;28;20425;-66
2021/10/21 17:33:30;;;;;;;9.27;1.60;;;;;;;12.79;97.17;98938.91;20941528;28;20232;-66
2021/10/21 17:53:35;;;;;;;13.57;1.53;;;;;;;12.56;93.23;98984.72;20621188;28;20716;-66
2021/10/21 18:03:39;;;;;;;9.00;1.53;;;;;;;12.76;92.34;98976.66;20615272;28;20231;-62
2021/10/21 18:13:45;;;;;;;9.20;1.57;;;;;;;12.91;87.03;98978.75;20549579;28;20840;-61
2021/10/21 18:23:50;;;;;;;5.73;1.40;;;;;;;12.93;86.13;98998.16;20509284;28;20778;-62
2021/10/21 18:34:00;;;;;;;6.67;1.60;;;;;;;12.67;87.64;98993.59;20556956;28;20243;-59
2021/10/21 18:44:05;;;;;;;3.90;1.73;;;;;;;12.14;90.17;99004.75;20619528;28;20241;-63
2021/10/21 18:54:12;;;;;;;8.63;1.90;;;;;;;11.76;93.80;99017.09;20660980;28;20233;-65
2021/10/21 19:04:15;;;;;;;11.53;1.70;;;;;;;11.69;90.57;99007.94;20623675;28;20276;-65
2021/10/21 19:14:22;;;;;;;10.63;2.00;;;;;;;11.56;88.76;99023.38;20582625;28;20233;-59
2021/10/21 19:24:26;;;;;;;9.73;1.93;;;;;;;11.41;86.58;99022.88;20551953;28;20273;-59
2021/10/21 19:34:31;;;;;;;2.60;1.20;;;;;;;11.26;85.20;99031.41;20576178;28;20226;-60
2021/10/21 19:44:35;;;;;;;10.57;1.67;;;;;;;11.12;84.57;99016.56;20553679;28;20250;-60
2021/10/21 19:54:40;;;;;;;6.37;1.27;;;;;;;10.96;85.76;99035.75;20573977;28;20225;-60
2021/10/21 20:04:44;;;;;;;4.37;1.50;;;;;;;10.74;88.21;99035.94;20558409;28;20603;-60
2021/10/21 20:14:49;;;;;;;3.83;1.47;;;;;;;10.79;88.00;99013.19;20579116;28;20228;-60
2021/10/21 20:24:53;;;;;;;3.93;1.70;;;;;;;10.65;90.78;99018.00;20573923;28;20710;-60
2021/10/21 20:34:58;;;;;;;2.40;1.40;;;;;;;10.64;90.61;99000.31;20579919;28;20295;-60
2021/10/21 20:45:01;;;;;;;1.93;1.27;;;;;;;10.65;93.58;99002.00;20649943;28;20312;-60
2021/10/21 20:55:07;;;;;;;2.70;1.30;;;;;;;10.51;94.50;98999.66;20636159;28;20233;-59
2021/10/21 21:05:11;;;;;;;2.23;0.90;;;;;;;10.42;96.34;98991.47;20649572;28;20237;-59
2021/10/21 21:15:16;;;;;;;1.43;1.30;;;;;;;10.41;96.52;98999.59;20640032;28;20594;-60
2021/10/21 21:25:20;;;;;;;1.97;1.20;;;;;;;10.27;98.69;98992.75;20647176;28;20583;-58
2021/10/21 21:35:25;;;;;;;2.37;1.50;;;;;;;10.33;98.46;98986.94;20629558;28;20312;-60
2021/10/21 21:45:29;;;;;;;2.17;1.50;;;;;;;10.39;98.02;98986.41;20644250;28;20234;-59
2021/10/21 22:15:30;;;;;;;3.63;1.30;;;;;;;10.38;100.00;98986.56;21025045;27;20632;-61
2021/10/21 22:25:34;;;;;;;2.73;1.40;;;;;;;10.80;98.82;99000.69;21027881;27;20287;-61
2021/10/21 22:35:39;;;;;;;2.00;1.70;;;;;;;11.33;93.01;99020.06;21046707;27;20248;-60
2021/10/21 22:45:43;;;;;;;3.07;1.40;;;;;;;11.61;87.99;99018.44;21020620;27;20230;-59
2021/10/21 22:55:48;;;;;;;3.20;1.90;;;;;;;11.74;84.22;99019.03;21043568;27;20226;-59
2021/10/21 23:05:56;;;;;;;6.73;2.03;;;;;;;11.92;80.06;99032.63;21022994;27;20234;-60
2021/10/21 23:16:00;;;;;;;4.57;1.97;;;;;;;11.98;82.40;99036.53;21041808;27;20236;-59
2021/10/21 23:26:04;;;;;;;5.03;2.10;;;;;;;11.90;78.43;99042.59;20893019;28;20237;-60
2021/10/21 23:46:09;;;;;;;2.93;0.80;;;;;;;10.94;100.00;99159.63;20972519;27;21176;-60
2021/10/21 23:56:13;;;;;;;3.33;0.80;;;;;;;9.39;100.00;99187.28;20948880;28;20223;-59
